Time;durP1;ratioP1;P1;durP2;ratioP2;P2;SDS_P1;SDS_P2;PMS_P1;PMS_P2;Temp;Humidity;BMP_temperature;BMP_pressure;BME280_temperature;BME280_humidity;BME280_pressure;Samples;Min_cycle;Max_cycle;Signal;HPM_P1;HPM_P2
2021/11/19 00:00:14;;;;;;;6.37;2.30;;;6.20;99.90;;;;;;6265284;23;20694;-85
2021/11/19 00:02:46;;;;;;;4.17;1.83;;;6.20;99.90;;;;;;6250498;22;20175;-85
2021/11/19 00:05:20;;;;;;;9.43;2.40;;;6.20;99.90;;;;;;6248735;22;20164;-85
2021/11/19 00:07:51;;;;;;;5.40;2.20;;;6.20;99.90;;;;;;6256644;22;20562;-85
2021/11/19 00:10:24;;;;;;;5.23;2.30;;;6.20;99.90;;;;;;6254837;22;20199;-84
2021/11/19 00:12:55;;;;;;;3.77;2.57;;;6.20;99.90;;;;;;6249283;23;20214;-85
2021/11/19 00:15:27;;;;;;;5.23;2.60;;;6.20;99.90;;;;;;6259228;23;20205;-85
2021/11/19 00:18:01;;;;;;;4.57;2.30;;;6.20;99.90;;;;;;6251358;23;20172;-85
2021/11/19 00:20:36;;;;;;;2.90;1.73;;;6.30;99.90;;;;;;6264156;23;20201;-85
2021/11/19 00:23:09;;;;;;;6.27;2.47;;;6.20;99.90;;;;;;6263313;22;20198;-85
2021/11/19 00:25:41;;;;;;;2.80;2.23;;;6.20;99.90;;;;;;6253521;22;20287;-85
2021/11/19 00:28:14;;;;;;;4.67;2.70;;;6.10;99.90;;;;;;6259985;23;20218;-85
2021/11/19 00:30:47;;;;;;;8.03;3.00;;;6.00;99.90;;;;;;6262639;23;20190;-86
2021/11/19 00:33:19;;;;;;;8.37;2.77;;;6.00;99.90;;;;;;6262314;23;20239;-85
2021/11/19 00:35:54;;;;;;;4.20;2.53;;;6.10;99.90;;;;;;6257504;23;20182;-86
2021/11/19 00:38:27;;;;;;;5.13;2.93;;;6.20;99.90;;;;;;6275602;22;20167;-86
2021/11/19 00:41:02;;;;;;;4.17;2.80;;;6.20;99.90;;;;;;6265426;23;20171;-85
2021/11/19 00:43:38;;;;;;;5.67;2.30;;;6.20;99.90;;;;;;6265806;23;20190;-85
2021/11/19 00:46:11;;;;;;;3.70;2.43;;;6.10;99.90;;;;;;6260831;22;20167;-85
2021/11/19 00:48:43;;;;;;;3.40;2.33;;;6.00;99.90;;;;;;6254268;22;20258;-85
2021/11/19 00:51:19;;;;;;;4.20;2.60;;;6.00;99.90;;;;;;6248991;22;20168;-86
2021/11/19 00:53:53;;;;;;;7.17;2.87;;;6.00;99.90;;;;;;6249019;22;20171;-85
2021/11/19 00:56:27;;;;;;;4.37;2.57;;;6.00;99.90;;;;;;6247778;22;20224;-85
2021/11/19 00:59:00;;;;;;;4.43;2.53;;;6.00;99.90;;;;;;6249038;22;20187;-86
2021/11/19 01:01:34;;;;;;;4.00;2.50;;;6.10;99.90;;;;;;6248774;22;20172;-86
2021/11/19 01:04:08;;;;;;;4.13;2.50;;;6.10;99.90;;;;;;6248936;23;20581;-85
2021/11/19 01:06:43;;;;;;;5.17;3.13;;;6.10;99.90;;;;;;6247166;22;20207;-86
2021/11/19 01:09:18;;;;;;;5.93;2.67;;;6.10;99.90;;;;;;6248166;22;20246;-85
2021/11/19 01:11:50;;;;;;;3.63;2.50;;;6.10;99.90;;;;;;6249012;22;20160;-86
2021/11/19 01:14:43;;;;;;;7.03;2.77;;;6.10;99.90;;;;;;6273728;22;20501;-85
2021/11/19 01:17:19;;;;;;;3.93;2.83;;;6.10;99.90;;;;;;6250506;23;20166;-85
2021/11/19 01:19:55;;;;;;;7.63;2.83;;;6.10;99.90;;;;;;6250000;23;20182;-86
2021/11/19 01:22:34;;;;;;;4.80;3.10;;;6.10;99.90;;;;;;6250241;22;20175;-86
2021/11/19 01:25:09;;;;;;;5.47;3.30;;;6.00;99.90;;;;;;6250862;22;20262;-86
2021/11/19 01:27:40;;;;;;;4.03;2.60;;;6.00;99.90;;;;;;6250552;22;20244;-86
2021/11/19 01:30:15;;;;;;;6.73;3.40;;;5.90;99.90;;;;;;6250555;22;20172;-86
2021/11/19 01:32:47;;;;;;;3.80;3.40;;;5.90;99.90;;;;;;6251226;23;20187;-85
2021/11/19 01:35:19;;;;;;;6.97;3.27;;;5.90;99.90;;;;;;6248075;23;20182;-84
2021/11/19 01:37:53;;;;;;;5.30;3.53;;;5.90;99.90;;;;;;6250395;22;20175;-84
2021/11/19 01:40:28;;;;;;;4.60;3.67;;;5.90;99.90;;;;;;6251340;23;20268;-85
2021/11/19 01:43:03;;;;;;;6.80;3.80;;;5.90;99.90;;;;;;6250571;22;20171;-85
2021/11/19 01:45:37;;;;;;;8.00;4.37;;;5.90;99.90;;;;;;6249455;22;20186;-84
2021/11/19 01:48:12;;;;;;;8.53;3.73;;;5.80;99.90;;;;;;6251568;23;20194;-85
2021/11/19 01:50:48;;;;;;;6.00;3.73;;;5.80;99.90;;;;;;6273935;22;20222;-86
2021/11/19 01:53:25;;;;;;;5.77;3.70;;;5.80;99.90;;;;;;6250003;23;20211;-86
2021/11/19 01:55:59;;;;;;;6.63;3.80;;;5.90;99.90;;;;;;6249348;22;20173;-86
2021/11/19 01:58:36;;;;;;;6.87;3.60;;;5.90;99.90;;;;;;6249911;22;20172;-85
2021/11/19 02:01:10;;;;;;;5.90;3.97;;;5.90;99.90;;;;;;6250539;23;20237;-86
2021/11/19 02:03:44;;;;;;;8.13;3.73;;;5.90;99.90;;;;;;6251223;23;20172;-85
2021/11/19 02:06:19;;;;;;;5.40;3.97;;;5.90;99.90;;;;;;6250049;22;20462;-85
2021/11/19 02:08:53;;;;;;;6.70;4.40;;;5.90;99.90;;;;;;6250418;23;20171;-85
2021/11/19 02:11:35;;;;;;;6.57;4.53;;;5.80;99.90;;;;;;6250865;23;20178;-86
2021/11/19 02:14:13;;;;;;;7.97;4.50;;;5.80;99.90;;;;;;6270582;22;20195;-85
2021/11/19 02:16:48;;;;;;;9.33;4.47;;;5.80;99.90;;;;;;6261224;23;20175;-85
2021/11/19 02:19:23;;;;;;;6.47;4.30;;;5.80;99.90;;;;;;6280211;22;20503;-85
2021/11/19 02:21:59;;;;;;;5.43;4.13;;;5.80;99.90;;;;;;6251971;23;20179;-86
2021/11/19 02:24:37;;;;;;;6.73;3.40;;;5.80;99.90;;;;;;6250676;23;20178;-85
2021/11/19 02:27:11;;;;;;;4.83;3.37;;;5.80;99.90;;;;;;6250034;22;20163;-85
2021/11/19 02:29:46;;;;;;;6.83;3.90;;;5.80;99.90;;;;;;6250976;22;20171;-85
2021/11/19 02:32:22;;;;;;;6.87;3.73;;;5.80;99.90;;;;;;6249809;23;20177;-84
2021/11/19 02:34:54;;;;;;;6.57;3.70;;;5.80;99.90;;;;;;6251239;23;20514;-85
2021/11/19 02:37:28;;;;;;;5.80;3.50;;;5.80;99.90;;;;;;6250108;22;20180;-85
2021/11/19 02:40:06;;;;;;;9.53;3.83;;;5.90;99.90;;;;;;6260411;23;20231;-84
2021/11/19 02:42:41;;;;;;;6.73;3.83;;;5.80;99.90;;;;;;6266095;22;20168;-85
2021/11/19 02:45:16;;;;;;;4.93;3.20;;;5.80;99.90;;;;;;6285520;22;20199;-87
2021/11/19 02:47:49;;;;;;;6.50;2.87;;;5.80;99.90;;;;;;6265984;23;20254;-86
2021/11/19 02:50:24;;;;;;;4.37;3.07;;;5.80;99.90;;;;;;6264197;23;20239;-84
2021/11/19 02:52:59;;;;;;;3.70;2.70;;;5.80;99.90;;;;;;6264669;22;20250;-85
2021/11/19 02:55:37;;;;;;;4.57;3.10;;;5.80;99.90;;;;;;6262059;23;20171;-85
2021/11/19 02:58:13;;;;;;;7.53;3.03;;;5.90;99.90;;;;;;6264577;22;20186;-85
2021/11/19 03:00:49;;;;;;;5.03;2.67;;;5.80;99.90;;;;;;6270842;22;20162;-85
2021/11/19 03:03:22;;;;;;;2.90;2.50;;;5.80;99.90;;;;;;6267119;22;20167;-85
2021/11/19 03:05:54;;;;;;;2.83;2.13;;;5.80;99.90;;;;;;6264769;22;20175;-85
2021/11/19 03:08:26;;;;;;;3.60;2.73;;;5.80;99.90;;;;;;6289630;22;20627;-85
2021/11/19 03:11:00;;;;;;;5.13;2.90;;;5.80;99.90;;;;;;6267434;22;20164;-86
2021/11/19 03:13:38;;;;;;;5.37;3.47;;;5.80;99.90;;;;;;6265414;22;20192;-86
2021/11/19 03:16:12;;;;;;;5.73;3.70;;;5.80;99.90;;;;;;6264514;23;20183;-85
2021/11/19 03:18:43;;;;;;;4.47;2.73;;;5.80;99.90;;;;;;6264321;23;20186;-85
2021/11/19 03:21:19;;;;;;;4.47;2.33;;;5.80;99.90;;;;;;6266867;22;20196;-86
2021/11/19 03:23:53;;;;;;;3.10;2.30;;;5.80;99.90;;;;;;6261811;23;20194;-85
2021/11/19 03:26:28;;;;;;;2.93;2.30;;;5.80;99.90;;;;;;6255451;22;20190;-85
2021/11/19 03:28:59;;;;;;;3.43;2.00;;;5.70;99.90;;;;;;6263803;23;20167;-85
2021/11/19 03:31:32;;;;;;;2.97;2.10;;;5.80;99.90;;;;;;6262298;23;20294;-85
2021/11/19 03:34:07;;;;;;;3.13;1.90;;;5.80;99.90;;;;;;6256247;23;20566;-85
2021/11/19 03:36:44;;;;;;;4.00;1.97;;;5.80;99.90;;;;;;6267032;23;20191;-84
2021/11/19 03:39:18;;;;;;;2.10;1.90;;;5.80;99.90;;;;;;6265715;22;20182;-86
2021/11/19 03:41:56;;;;;;;3.50;1.90;;;5.70;99.90;;;;;;6267377;22;20170;-85
2021/11/19 03:44:30;;;;;;;2.60;1.87;;;5.70;99.90;;;;;;6262916;22;20190;-86
2021/11/19 03:47:07;;;;;;;3.40;1.70;;;5.70;99.90;;;;;;6263092;22;20219;-85
2021/11/19 03:49:40;;;;;;;1.70;1.60;;;5.70;99.90;;;;;;6261060;23;20178;-86
2021/11/19 03:52:17;;;;;;;2.67;2.30;;;5.60;99.90;;;;;;6262857;22;20202;-86
2021/11/19 03:54:52;;;;;;;5.90;4.43;;;5.70;99.90;;;;;;6260539;23;20203;-86
2021/11/19 03:57:31;;;;;;;4.63;3.37;;;5.70;99.90;;;;;;6262902;23;20176;-84
2021/11/19 04:00:10;;;;;;;3.10;2.17;;;5.80;99.90;;;;;;6249671;23;20214;-86
2021/11/19 04:02:42;;;;;;;3.20;2.30;;;5.80;99.90;;;;;;6249891;22;20171;-85
2021/11/19 04:05:14;;;;;;;4.90;2.70;;;5.80;99.90;;;;;;6264370;22;20198;-84
2021/11/19 04:07:46;;;;;;;3.93;2.83;;;5.80;99.90;;;;;;6258942;22;20191;-86
2021/11/19 04:10:19;;;;;;;4.43;2.77;;;5.80;99.90;;;;;;6264508;22;20171;-86
2021/11/19 04:12:53;;;;;;;4.37;2.67;;;5.70;99.90;;;;;;6262695;22;20256;-84
2021/11/19 04:15:29;;;;;;;3.67;2.60;;;5.70;99.90;;;;;;6263329;23;20207;-85
2021/11/19 04:18:11;;;;;;;4.57;3.10;;;5.80;99.90;;;;;;6264051;23;20190;-84
2021/11/19 04:20:44;;;;;;;6.17;3.90;;;5.80;99.90;;;;;;6264175;23;20215;-85
2021/11/19 04:23:16;;;;;;;5.33;3.50;;;5.80;99.90;;;;;;6260703;22;20192;-85
2021/11/19 04:25:49;;;;;;;9.83;4.37;;;5.80;99.90;;;;;;6264268;23;20215;-83
2021/11/19 04:28:23;;;;;;;7.97;4.87;;;5.80;99.90;;;;;;6269527;22;20167;-85
2021/11/19 04:30:58;;;;;;;14.70;4.33;;;5.80;99.90;;;;;;6271867;22;20198;-85
2021/11/19 04:33:30;;;;;;;7.93;4.73;;;5.80;99.90;;;;;;6271721;22;20238;-85
2021/11/19 04:36:04;;;;;;;9.37;5.23;;;5.90;99.90;;;;;;6284057;22;20187;-85
2021/11/19 04:38:36;;;;;;;10.73;6.60;;;5.90;99.90;;;;;;6268072;23;20187;-85
2021/11/19 04:41:08;;;;;;;9.70;5.63;;;5.80;99.90;;;;;;6264790;23;20174;-83
2021/11/19 04:43:45;;;;;;;9.03;4.70;;;5.80;99.90;;;;;;6267731;22;20187;-86
2021/11/19 04:46:18;;;;;;;7.43;4.37;;;5.90;99.90;;;;;;6247932;22;20218;-86
2021/11/19 04:48:51;;;;;;;17.10;9.30;;;5.90;99.90;;;;;;6254055;23;20172;-87
2021/11/19 04:51:27;;;;;;;20.40;10.70;;;6.00;99.90;;;;;;6253079;23;20202;-84
2021/11/19 04:53:59;;;;;;;6.67;3.50;;;6.00;99.90;;;;;;6254869;22;20206;-86
2021/11/19 04:56:32;;;;;;;6.43;4.40;;;5.90;99.90;;;;;;6263238;22;20486;-85
2021/11/19 04:59:07;;;;;;;10.07;5.97;;;5.90;99.90;;;;;;6253006;23;20163;-85
2021/11/19 05:01:41;;;;;;;16.37;6.73;;;5.90;99.90;;;;;;6249704;22;20174;-85
2021/11/19 05:04:14;;;;;;;7.40;4.50;;;5.90;99.90;;;;;;6249545;22;20171;-85
2021/11/19 05:06:48;;;;;;;22.13;9.90;;;5.90;99.90;;;;;;6252094;23;20259;-85
2021/11/19 05:09:21;;;;;;;14.40;6.90;;;5.90;99.90;;;;;;6249853;23;20175;-85
2021/11/19 05:11:55;;;;;;;7.50;4.47;;;5.90;99.90;;;;;;6250760;22;20171;-85
2021/11/19 05:14:28;;;;;;;8.47;4.87;;;6.00;99.90;;;;;;6249595;22;20199;-86
2021/11/19 05:17:00;;;;;;;8.50;5.80;;;6.00;99.90;;;;;;6247770;22;20233;-85
2021/11/19 05:19:33;;;;;;;8.80;5.43;;;6.00;99.90;;;;;;6260157;22;20172;-85
2021/11/19 05:22:08;;;;;;;6.93;4.97;;;6.00;99.90;;;;;;6251946;23;20249;-84
2021/11/19 05:24:39;;;;;;;5.97;4.47;;;6.00;99.90;;;;;;6248782;22;20187;-85
2021/11/19 05:27:12;;;;;;;4.80;3.93;;;6.00;99.90;;;;;;6246956;23;20176;-85
2021/11/19 05:29:45;;;;;;;6.30;4.00;;;6.00;99.90;;;;;;6249612;22;20168;-85
2021/11/19 05:32:17;;;;;;;5.97;4.50;;;6.00;99.90;;;;;;6258110;22;20170;-85
2021/11/19 05:34:49;;;;;;;4.73;4.33;;;6.00;99.90;;;;;;6251732;22;20196;-85
2021/11/19 05:37:21;;;;;;;5.03;4.50;;;6.00;99.90;;;;;;6247808;23;20168;-85
2021/11/19 05:39:53;;;;;;;7.60;5.80;;;6.00;99.90;;;;;;6247419;23;20248;-85
2021/11/19 05:42:25;;;;;;;5.70;4.93;;;6.10;99.90;;;;;;6249276;22;20172;-84
2021/11/19 05:44:59;;;;;;;6.73;5.27;;;6.00;99.90;;;;;;6249328;22;20219;-85
2021/11/19 05:47:32;;;;;;;5.80;5.20;;;6.00;99.90;;;;;;6247987;22;20192;-86
2021/11/19 05:50:06;;;;;;;6.43;5.43;;;6.00;99.90;;;;;;6250150;23;20175;-86
2021/11/19 05:52:38;;;;;;;7.17;5.80;;;6.00;99.90;;;;;;6247930;23;20462;-85
2021/11/19 05:55:12;;;;;;;7.63;6.83;;;6.00;99.90;;;;;;6248142;22;20209;-86
2021/11/19 05:57:44;;;;;;;6.57;5.67;;;6.00;99.90;;;;;;6250703;23;20175;-85
2021/11/19 06:00:37;;;;;;;7.43;6.27;;;6.00;99.90;;;;;;6252197;23;20190;-87
2021/11/19 06:03:09;;;;;;;7.37;6.30;;;6.10;99.90;;;;;;6256928;23;20169;-86
2021/11/19 06:05:42;;;;;;;7.47;6.40;;;6.00;99.90;;;;;;6254816;23;20186;-85
2021/11/19 06:08:14;;;;;;;7.90;6.50;;;6.00;99.90;;;;;;6251048;22;20190;-85
2021/11/19 06:10:52;;;;;;;6.87;5.47;;;6.00;99.90;;;;;;6260770;23;20274;-84
2021/11/19 06:13:27;;;;;;;6.83;5.97;;;6.00;99.90;;;;;;6249443;23;20191;-85
2021/11/19 06:16:03;;;;;;;6.90;5.70;;;5.90;99.90;;;;;;6250039;23;20202;-85
2021/11/19 06:18:39;;;;;;;7.97;5.67;;;5.80;99.90;;;;;;6253095;22;20199;-85
2021/11/19 06:21:14;;;;;;;5.87;5.03;;;5.80;99.90;;;;;;6251057;22;20700;-84
2021/11/19 06:23:51;;;;;;;8.40;5.30;;;5.80;99.90;;;;;;6251068;23;20179;-85
2021/11/19 06:26:25;;;;;;;5.43;3.67;;;5.90;99.90;;;;;;6250521;22;20225;-85
2021/11/19 06:29:04;;;;;;;5.00;3.40;;;5.80;99.90;;;;;;6251204;22;20174;-85
2021/11/19 06:31:40;;;;;;;3.63;3.20;;;5.70;99.90;;;;;;6250950;22;20251;-84
2021/11/19 06:34:12;;;;;;;5.53;3.40;;;5.70;99.90;;;;;;6250687;23;20242;-85
2021/11/19 06:36:45;;;;;;;4.57;3.30;;;5.70;99.90;;;;;;6249806;22;20219;-85
2021/11/19 06:39:33;;;;;;;3.80;3.40;;;5.60;99.90;;;;;;6249938;23;20206;-84
2021/11/19 06:42:05;;;;;;;3.30;2.97;;;5.70;99.90;;;;;;6252808;22;20164;-85
2021/11/19 06:44:38;;;;;;;4.90;3.37;;;5.70;99.90;;;;;;6270046;22;20185;-85
2021/11/19 06:47:12;;;;;;;3.90;3.00;;;5.70;99.90;;;;;;6271943;22;20203;-84
2021/11/19 06:49:45;;;;;;;5.50;3.00;;;5.60;99.90;;;;;;6271901;22;20211;-84
2021/11/19 06:52:17;;;;;;;3.40;3.10;;;5.60;99.90;;;;;;6262097;22;20231;-85
2021/11/19 06:54:49;;;;;;;3.00;2.60;;;5.70;99.90;;;;;;6267865;22;20239;-84
2021/11/19 06:57:21;;;;;;;4.20;2.50;;;5.70;99.90;;;;;;6263792;23;20199;-85
2021/11/19 06:59:53;;;;;;;4.43;2.70;;;5.80;99.90;;;;;;6264698;22;20182;-84
2021/11/19 07:02:28;;;;;;;3.47;2.30;;;5.70;99.90;;;;;;6264194;22;20225;-84
2021/11/19 07:04:59;;;;;;;2.67;2.33;;;5.60;99.90;;;;;;6264684;23;20229;-84
2021/11/19 07:07:31;;;;;;;3.03;2.00;;;5.60;99.90;;;;;;6267295;22;20194;-87
2021/11/19 07:10:03;;;;;;;2.03;1.50;;;5.50;99.90;;;;;;6265280;22;20214;-85
2021/11/19 07:12:34;;;;;;;1.87;1.67;;;5.40;99.90;;;;;;6261072;22;20172;-85
2021/11/19 07:15:07;;;;;;;2.73;2.23;;;5.30;99.90;;;;;;6258675;22;20286;-85
2021/11/19 07:17:41;;;;;;;4.40;2.27;;;5.30;99.90;;;;;;6252419;23;20267;-85
2021/11/19 07:20:15;;;;;;;3.00;2.30;;;5.40;99.90;;;;;;6253559;22;20171;-85
2021/11/19 07:22:47;;;;;;;2.87;2.50;;;5.30;99.90;;;;;;6259400;22;20163;-85
2021/11/19 07:25:21;;;;;;;2.97;2.40;;;5.30;99.90;;;;;;6255397;23;20246;-85
2021/11/19 07:27:56;;;;;;;3.43;2.80;;;5.30;99.90;;;;;;6254055;23;20188;-85
2021/11/19 07:30:30;;;;;;;3.57;2.70;;;5.30;99.90;;;;;;6252930;23;20213;-85
2021/11/19 07:33:04;;;;;;;2.77;2.57;;;5.20;99.90;;;;;;6251545;23;20305;-86
2021/11/19 07:35:37;;;;;;;5.20;2.80;;;5.20;99.90;;;;;;6250258;22;20204;-85
2021/11/19 07:38:10;;;;;;;3.70;2.70;;;5.20;99.90;;;;;;6260406;23;20179;-85
2021/11/19 07:40:43;;;;;;;3.43;2.37;;;5.20;99.90;;;;;;6252803;22;20167;-85
2021/11/19 07:43:15;;;;;;;2.87;2.23;;;5.20;99.90;;;;;;6252580;23;20246;-86
2021/11/19 07:45:48;;;;;;;2.97;2.40;;;5.20;99.90;;;;;;6249812;23;20603;-86
2021/11/19 07:48:26;;;;;;;3.17;2.30;;;5.20;99.90;;;;;;6260415;22;20160;-85
2021/11/19 07:51:02;;;;;;;4.07;2.53;;;5.20;99.90;;;;;;6264614;22;20258;-84
2021/11/19 07:53:33;;;;;;;5.53;2.93;;;5.20;99.90;;;;;;6253935;22;20242;-85
2021/11/19 07:56:07;;;;;;;3.43;2.67;;;5.20;99.90;;;;;;6249439;22;20203;-85
2021/11/19 07:58:39;;;;;;;3.43;2.60;;;5.20;99.90;;;;;;6250686;22;20168;-86
2021/11/19 08:01:12;;;;;;;3.60;2.70;;;5.20;99.90;;;;;;6251131;23;20164;-85
2021/11/19 08:03:47;;;;;;;3.80;3.10;;;5.30;99.90;;;;;;6250826;22;20210;-85
2021/11/19 08:06:19;;;;;;;4.90;2.57;;;5.20;99.90;;;;;;6249550;23;20182;-85
2021/11/19 08:08:50;;;;;;;3.97;3.00;;;5.30;99.90;;;;;;6251525;22;20164;-85
2021/11/19 08:11:23;;;;;;;3.23;2.57;;;5.20;99.90;;;;;;6251731;23;20196;-85
2021/11/19 08:13:56;;;;;;;3.40;2.77;;;5.20;99.90;;;;;;6250787;23;20182;-85
2021/11/19 08:16:27;;;;;;;2.53;2.30;;;5.20;99.90;;;;;;6256708;23;20199;-84
2021/11/19 08:19:03;;;;;;;3.20;2.37;;;5.30;99.90;;;;;;6257585;23;20219;-85
2021/11/19 08:21:35;;;;;;;2.13;1.80;;;5.30;99.90;;;;;;6251525;22;20167;-84
2021/11/19 08:24:08;;;;;;;4.50;2.00;;;5.30;99.90;;;;;;6250641;23;20630;-85
2021/11/19 08:26:43;;;;;;;2.70;1.80;;;5.30;99.90;;;;;;6249948;23;20190;-84
2021/11/19 08:29:22;;;;;;;3.20;1.90;;;5.30;99.90;;;;;;6253494;22;20179;-85
2021/11/19 08:31:54;;;;;;;3.83;1.83;;;5.30;99.90;;;;;;6254148;23;20178;-85
2021/11/19 08:34:29;;;;;;;1.77;1.60;;;5.30;99.90;;;;;;6254371;23;20266;-85
2021/11/19 08:37:01;;;;;;;2.87;1.70;;;5.30;99.90;;;;;;6259000;22;20196;-83
2021/11/19 08:39:33;;;;;;;3.03;2.00;;;5.30;99.90;;;;;;6260838;23;20175;-86
2021/11/19 08:42:06;;;;;;;2.23;1.90;;;5.30;99.90;;;;;;6253964;23;20670;-85
2021/11/19 08:44:38;;;;;;;2.30;2.10;;;5.30;99.90;;;;;;6250281;23;20168;-85
2021/11/19 08:47:25;;;;;;;2.30;2.10;;;5.40;99.90;;;;;;6248812;23;20210;-85
2021/11/19 08:50:01;;;;;;;2.37;1.90;;;5.30;99.90;;;;;;6249572;23;20234;-86
2021/11/19 08:52:33;;;;;;;2.30;1.57;;;5.40;99.90;;;;;;6249624;22;20202;-85
2021/11/19 08:55:06;;;;;;;3.57;2.00;;;5.40;99.90;;;;;;6249893;22;20175;-87
2021/11/19 08:57:39;;;;;;;2.83;1.93;;;5.40;99.90;;;;;;6250296;22;20191;-86
2021/11/19 09:00:14;;;;;;;2.67;1.80;;;5.40;99.90;;;;;;6249847;23;20182;-85
2021/11/19 09:02:46;;;;;;;2.37;2.17;;;5.30;99.90;;;;;;6251477;23;20164;-84
2021/11/19 09:05:20;;;;;;;2.83;2.00;;;5.40;99.90;;;;;;6267930;22;20179;-85
2021/11/19 09:07:51;;;;;;;3.30;2.37;;;5.40;99.90;;;;;;6253901;23;20195;-84
2021/11/19 09:10:23;;;;;;;2.40;2.10;;;5.50;99.90;;;;;;6255606;22;20200;-85
2021/11/19 09:12:55;;;;;;;3.33;2.07;;;5.50;99.90;;;;;;6251670;23;20175;-84
2021/11/19 09:15:27;;;;;;;3.70;2.20;;;5.50;99.90;;;;;;6250613;22;20175;-84
2021/11/19 09:18:19;;;;;;;2.20;2.00;;;5.50;99.90;;;;;;6247489;23;20207;-85
2021/11/19 09:21:12;;;;;;;2.07;1.87;;;5.50;99.90;;;;;;6249657;23;20172;-85
2021/11/19 09:23:47;;;;;;;2.33;2.07;;;5.60;99.90;;;;;;6249040;22;20184;-84
2021/11/19 09:26:22;;;;;;;2.33;1.90;;;5.50;99.90;;;;;;6255321;22;20247;-84
2021/11/19 09:28:55;;;;;;;2.83;2.10;;;5.60;99.90;;;;;;6262694;22;20243;-85
2021/11/19 09:31:27;;;;;;;1.67;1.37;;;5.60;99.90;;;;;;6256686;23;20176;-85
2021/11/19 09:33:59;;;;;;;3.43;2.00;;;5.60;99.90;;;;;;6254808;23;20176;-85
2021/11/19 09:36:33;;;;;;;1.57;1.47;;;5.60;99.90;;;;;;6249100;23;20227;-86
2021/11/19 09:39:05;;;;;;;1.50;1.40;;;5.60;99.90;;;;;;6250918;22;20172;-82
2021/11/19 09:41:58;;;;;;;2.03;1.30;;;5.60;99.90;;;;;;6251175;23;20495;-84
2021/11/19 09:45:24;;;;;;;1.57;1.47;;;5.60;99.90;;;;;;6251629;22;20255;-86
2021/11/19 09:48:31;;;;;;;3.10;1.07;;;5.60;99.90;;;;;;6250749;22;20180;-84
2021/11/19 09:51:53;;;;;;;3.40;1.07;;;5.60;99.90;;;;;;6251161;22;20200;-86
2021/11/19 09:55:06;;;;;;;1.13;1.03;;;5.60;99.90;;;;;;6251222;22;20254;-85
2021/11/19 09:58:22;;;;;;;1.20;1.10;;;5.60;99.90;;;;;;6244564;22;20199;-85
2021/11/19 10:01:15;;;;;;;0.97;0.73;;;5.50;99.90;;;;;;6250727;22;20182;-85
2021/11/19 10:04:24;;;;;;;0.70;0.70;;;5.50;99.90;;;;;;6251716;22;20244;-86
2021/11/19 10:07:02;;;;;;;0.73;0.73;;;5.40;99.90;;;;;;6155292;22;20560;-84
2021/11/19 10:09:43;;;;;;;0.87;0.83;;;5.30;99.90;;;;;;6253349;22;20179;-86
2021/11/19 10:12:19;;;;;;;0.83;0.80;;;5.30;99.90;;;;;;6249241;23;20174;-86
2021/11/19 10:14:58;;;;;;;1.63;0.90;;;5.30;99.90;;;;;;6250658;22;20315;-86
2021/11/19 10:17:46;;;;;;;1.13;1.03;;;5.30;99.90;;;;;;6251206;22;20191;-84
2021/11/19 10:20:21;;;;;;;0.80;0.80;;;5.30;99.90;;;;;;6250883;22;20237;-86
2021/11/19 10:22:56;;;;;;;1.17;1.07;;;5.30;99.90;;;;;;6250118;22;20174;-85
2021/11/19 10:25:34;;;;;;;1.90;0.93;;;5.30;99.90;;;;;;6248035;23;20175;-85
2021/11/19 10:28:23;;;;;;;1.60;1.50;;;5.30;99.90;;;;;;6248815;23;20266;-85
2021/11/19 10:30:57;;;;;;;1.87;1.37;;;5.30;99.90;;;;;;6250182;23;20598;-86
2021/11/19 10:33:33;;;;;;;1.23;1.13;;;5.20;99.90;;;;;;6249691;23;20164;-85
2021/11/19 10:36:27;;;;;;;1.73;1.63;;;5.10;99.90;;;;;;6249583;22;20175;-83
2021/11/19 10:39:35;;;;;;;1.60;1.50;;;5.10;99.90;;;;;;6249855;23;20278;-85
2021/11/19 10:42:51;;;;;;;1.50;1.40;;;5.10;99.90;;;;;;6250381;22;20254;-85
2021/11/19 10:45:45;;;;;;;2.43;1.60;;;5.10;99.90;;;;;;6249074;22;20190;-86
2021/11/19 10:49:04;;;;;;;2.40;1.70;;;5.00;99.90;;;;;;6250324;23;20181;-86
2021/11/19 10:52:23;;;;;;;1.90;1.80;;;5.00;99.90;;;;;;6250060;22;20186;-85
2021/11/19 10:55:28;;;;;;;2.73;2.20;;;5.10;99.90;;;;;;6216445;22;20180;-86
2021/11/19 10:58:28;;;;;;;3.03;2.70;;;5.10;99.90;;;;;;6250905;22;20199;-86
2021/11/19 11:01:13;;;;;;;3.40;3.20;;;5.00;99.90;;;;;;6249781;22;20175;-87
2021/11/19 11:04:03;;;;;;;4.40;4.00;;;5.00;99.90;;;;;;6249244;22;20251;-87
2021/11/19 11:07:09;;;;;;;4.03;3.50;;;5.00;99.90;;;;;;6247382;23;20247;-86
2021/11/19 11:09:50;;;;;;;4.47;4.03;;;5.00;99.90;;;;;;6249590;23;20176;-86
2021/11/19 11:12:29;;;;;;;4.50;3.97;;;4.90;99.90;;;;;;6249864;22;20624;-86
2021/11/19 11:15:28;;;;;;;6.27;4.80;;;4.90;99.90;;;;;;6251172;23;20164;-84
2021/11/19 11:18:18;;;;;;;5.67;4.60;;;4.90;99.90;;;;;;6249956;22;20196;-86
2021/11/19 11:21:19;;;;;;;5.87;5.10;;;4.90;99.90;;;;;;6255415;22;20183;-85
2021/11/19 11:24:10;;;;;;;5.90;5.30;;;5.00;99.90;;;;;;6257702;23;20187;-86
2021/11/19 11:26:47;;;;;;;6.73;5.90;;;5.00;99.90;;;;;;6258317;22;20179;-86
2021/11/19 11:29:41;;;;;;;7.13;5.50;;;5.00;99.90;;;;;;6255327;22;20203;-85
2021/11/19 11:32:24;;;;;;;6.43;5.20;;;5.00;99.90;;;;;;6250956;22;20164;-85
2021/11/19 11:35:12;;;;;;;6.63;5.67;;;5.00;99.90;;;;;;6249713;22;20200;-85
2021/11/19 11:37:56;;;;;;;7.13;5.60;;;5.00;99.90;;;;;;6247832;23;20199;-86
2021/11/19 11:40:39;;;;;;;7.17;6.07;;;5.00;99.90;;;;;;6250242;23;20172;-85
2021/11/19 11:43:29;;;;;;;6.70;5.63;;;5.00;99.90;;;;;;6249973;23;20182;-85
2021/11/19 11:46:15;;;;;;;5.57;4.90;;;4.90;99.90;;;;;;6248743;23;20172;-85
2021/11/19 11:48:52;;;;;;;6.77;4.90;;;5.00;99.90;;;;;;6249562;22;20164;-86
2021/11/19 11:51:38;;;;;;;7.83;4.87;;;4.90;99.90;;;;;;6248512;22;20187;-86
2021/11/19 11:54:21;;;;;;;5.37;4.83;;;4.90;99.90;;;;;;6249857;22;20186;-86
2021/11/19 11:57:32;;;;;;;4.50;4.10;;;4.90;99.90;;;;;;6248961;22;20172;-86
2021/11/19 12:00:09;;;;;;;6.10;4.60;;;4.90;99.90;;;;;;6251721;22;20174;-86
2021/11/19 12:02:49;;;;;;;3.63;3.27;;;4.90;99.90;;;;;;6249676;22;20167;-87
2021/11/19 12:05:41;;;;;;;4.80;3.77;;;4.80;99.90;;;;;;6248636;22;20175;-87
2021/11/19 12:08:37;;;;;;;5.57;3.57;;;4.80;99.90;;;;;;6249502;22;20254;-86
2021/11/19 12:11:35;;;;;;;4.10;3.70;;;4.80;99.90;;;;;;6249212;22;20171;-85
2021/11/19 12:14:23;;;;;;;4.23;3.80;;;4.80;99.90;;;;;;6249693;22;20167;-86
2021/11/19 12:17:07;;;;;;;3.90;3.50;;;4.80;99.90;;;;;;6248241;22;20172;-86
2021/11/19 12:19:44;;;;;;;7.07;4.00;;;4.80;99.90;;;;;;6249755;22;20174;-85
2021/11/19 12:22:20;;;;;;;4.20;3.80;;;4.80;99.90;;;;;;6249761;22;20164;-86
2021/11/19 12:24:58;;;;;;;4.83;3.40;;;4.80;99.90;;;;;;6248952;23;20217;-86
2021/11/19 12:27:38;;;;;;;4.60;4.13;;;4.80;99.90;;;;;;6248956;23;20186;-86
2021/11/19 12:30:30;;;;;;;5.37;4.20;;;4.80;99.90;;;;;;6249335;22;20173;-87
2021/11/19 12:33:16;;;;;;;4.23;3.83;;;4.80;99.90;;;;;;6248558;22;20254;-87
2021/11/19 12:35:53;;;;;;;5.63;4.40;;;4.90;99.90;;;;;;6246855;22;20182;-87
2021/11/19 12:38:31;;;;;;;5.83;4.23;;;4.90;99.90;;;;;;6247447;23;20205;-87
2021/11/19 12:41:08;;;;;;;4.43;3.97;;;4.90;99.90;;;;;;6247845;23;20172;-86
2021/11/19 12:44:09;;;;;;;5.53;4.00;;;4.90;99.90;;;;;;6247282;23;20243;-86
2021/11/19 12:47:07;;;;;;;4.27;3.87;;;4.90;99.90;;;;;;6226519;22;20183;-87
2021/11/19 12:50:19;;;;;;;4.47;3.70;;;4.80;99.90;;;;;;6218981;22;20180;-85
2021/11/19 12:53:02;;;;;;;5.07;3.57;;;4.80;99.90;;;;;;6186110;23;20663;-85
2021/11/19 12:55:39;;;;;;;6.27;3.90;;;4.80;99.90;;;;;;6185258;23;20177;-85
2021/11/19 12:58:29;;;;;;;6.57;3.70;;;4.80;99.90;;;;;;6229842;22;20226;-85
2021/11/19 13:01:29;;;;;;;5.13;3.57;;;4.80;99.90;;;;;;6248802;22;20172;-85
2021/11/19 13:04:23;;;;;;;4.13;3.23;;;4.80;99.90;;;;;;6248930;22;20175;-86
2021/11/19 13:06:59;;;;;;;5.63;3.00;;;4.80;99.90;;;;;;6247675;22;20182;-86
2021/11/19 13:09:52;;;;;;;6.30;3.27;;;4.80;99.90;;;;;;6249408;22;20195;-85
2021/11/19 13:12:39;;;;;;;7.17;3.07;;;4.80;99.90;;;;;;6251554;22;20164;-86
2021/11/19 13:15:33;;;;;;;4.93;3.57;;;4.80;99.90;;;;;;6250185;22;20175;-85
2021/11/19 13:18:41;;;;;;;5.33;3.73;;;4.90;99.90;;;;;;6244206;22;20254;-85
2021/11/19 13:21:45;;;;;;;4.30;3.20;;;4.90;99.90;;;;;;6250188;22;20648;-85
2021/11/19 13:24:43;;;;;;;7.60;3.10;;;4.90;99.90;;;;;;6246529;22;20255;-85
2021/11/19 13:27:47;;;;;;;4.17;2.77;;;4.90;99.90;;;;;;6250423;23;20225;-85
2021/11/19 13:30:54;;;;;;;4.13;3.00;;;4.90;99.90;;;;;;6218760;22;20188;-85
2021/11/19 13:33:28;;;;;;;4.47;3.47;;;5.00;99.90;;;;;;6250785;22;20258;-85
2021/11/19 13:36:28;;;;;;;3.30;3.00;;;5.00;99.90;;;;;;6250638;23;20636;-84
2021/11/19 13:39:35;;;;;;;5.30;2.40;;;5.00;99.90;;;;;;6256133;23;20204;-84
2021/11/19 13:45:15;;;;;;;3.07;2.53;;;5.00;99.90;;;;;;6254872;23;20198;-90
2021/11/19 13:48:16;;;;;;;4.37;2.53;;;5.00;99.90;;;;;;6249760;22;20241;-84
2021/11/19 13:51:27;;;;;;;3.80;1.80;;;5.00;99.90;;;;;;6245115;22;20226;-84
2021/11/19 13:54:18;;;;;;;5.20;1.90;;;5.00;99.90;;;;;;6253504;23;20598;-85
2021/11/19 13:56:54;;;;;;;2.73;1.60;;;5.00;99.90;;;;;;6249669;22;20176;-86
2021/11/19 13:59:29;;;;;;;3.37;1.70;;;5.00;99.90;;;;;;6249859;23;20205;-86
2021/11/19 14:02:08;;;;;;;1.90;1.60;;;5.00;99.90;;;;;;6250508;22;20171;-85